Etusivu
METAR-TAF:

METAR-TAF

Lentoasemat :

Calais, Ranska

Leveyspiiri: 50-57-39N, Pituuspiiri: 001-57-05E, korkeus merenpinnasta: 4 m

Tämänhetkinen sää

Tämä raportti tehtiin 15 minuuttia sitten, kello 09.00 UTC
Tuuli 6 kn etelästä
Lämpötila 9°C
Kosteus 87%
Ilmanpaine 1022 hPa
Näkyvyys 10 km tai enemmän
ei pilviä alle 1500 m:ssä eikä cumulonimbus-pilviä

METAR: LFAC 240900Z AUTO 18006KT CAVOK 09/07 Q1022

Aika: 10:15 (09:15 UTC)


TAF: puuttuu

Säähavainnot ja -ennusteet yli 4000 lentoasemalta (METAR- ja TAF-raportit).

Käytössä olevat sääasemat on merkitty karttaan keltaisilla ja punaisilla pisteillä.

Aseta hiiri pisteen päälle nähdäksesi sääaseman nimen.

Klikkaa sitten nähdäksesi säähavainnot ja -ennusteet.

Kartan vaihtaminen: klikkaa mustalla rastilla varustettuja vihreitä pisteitä, niin voit zoomata sisään; viivalla varustettua vihreää pistettä, niin voit zoomata ulos tai vihreitä nuolia, niin pääset viereisille kartoille.


METAR-TAF: